WMKC/KBR METAR and TAF weather

Enter ICAO airport designator
Station Type Date Time Source
WMKC METAR 2020/01/18 15:00 UTC NOAA

WMKC 181500Z 08009KT 050V110 9999 FEW020 27/24 Q1013


Station Type Date Time Source
WMKC Decoded METAR 2020/01/18 15:00 UTC NOAA

Kota Bharu, Malaysia (WMKC) 06-10N 102-17E 5M
Jan 18, 2020 - 10:00 AM EST / 2020.01.18 1500 UTC
Wind: from the E (080 degrees) at 10 MPH (9 KT) (direction variable):0
Visibility: greater than 7 mile(s):0
Sky conditions: mostly clear
Temperature: 80 F (27 C)
Dew Point: 75 F (24 C)
Relative Humidity: 83%
Pressure (altimeter): 29.91 in. Hg (1013 hPa)
ob: WMKC 181500Z 08009KT 050V110 9999 FEW020 27/24 Q1013
cycle: 15

Station Type Date Time Source
WMKC TAF 2020/01/18 12:00 UTC NOAA

TAF WMKC 181100Z 1812/1912 08006KT 9999 FEW018
BECMG 1814/1815 20005KT FEW020
BECMG 1816/1817 VRB03KT
BECMG 1901/1902 08006KT FEW018
BECMG 1910/1912 VRB03KT FEW020

Example: see airport list